Time;durP1;ratioP1;P1;durP2;ratioP2;P2;SDS_P1;SDS_P2;PMS_P1;PMS_P2;Temp;Humidity;BMP_temperature;BMP_pressure;BME280_temperature;BME280_humidity;BME280_pressure;Samples;Min_cycle;Max_cycle;Signal;HPM_P1;HPM_P2
2021/11/18 00:00:50;;;;;;;31.33;9.80;;;29.90;76.90;;;;;;5083807;28;20019;-50
2021/11/18 00:03:18;;;;;;;32.15;9.00;;;29.80;77.00;;;;;;5083738;28;20028;-46
2021/11/18 00:05:46;;;;;;;32.30;9.18;;;29.80;77.00;;;;;;5083426;28;20036;-51
2021/11/18 00:08:13;;;;;;;46.17;9.23;;;29.80;77.10;;;;;;5083653;28;20025;-49
2021/11/18 00:10:44;;;;;;;31.95;8.70;;;29.80;77.10;;;;;;5083656;28;20008;-44
2021/11/18 00:13:16;;;;;;;39.92;8.68;;;29.80;77.10;;;;;;5083343;28;20088;-50
2021/11/18 00:15:44;;;;;;;34.30;8.48;;;29.80;77.10;;;;;;5083455;28;20146;-49
2021/11/18 00:18:18;;;;;;;33.80;9.10;;;29.80;77.10;;;;;;5083523;28;20017;-53
2021/11/18 00:20:48;;;;;;;35.03;9.13;;;29.80;77.10;;;;;;5083619;28;20032;-49
2021/11/18 00:23:17;;;;;;;33.13;8.80;;;29.80;77.10;;;;;;5083941;28;20052;-52
2021/11/18 00:25:45;;;;;;;29.88;9.38;;;29.80;77.10;;;;;;5083355;28;20016;-51
2021/11/18 00:28:12;;;;;;;32.17;8.52;;;29.80;77.10;;;;;;5083481;28;20109;-54
2021/11/18 00:30:39;;;;;;;28.77;8.55;;;29.80;77.10;;;;;;5083480;28;20016;-50
2021/11/18 00:33:06;;;;;;;38.60;9.23;;;29.70;77.10;;;;;;5083150;28;20327;-50
2021/11/18 00:35:35;;;;;;;27.98;8.55;;;29.70;77.10;;;;;;5083492;28;20023;-48
2021/11/18 00:38:02;;;;;;;32.75;8.75;;;29.70;77.10;;;;;;5083266;28;20040;-45
2021/11/18 00:40:34;;;;;;;29.65;8.18;;;29.70;77.00;;;;;;5084196;28;20304;-47
2021/11/18 00:43:02;;;;;;;29.38;8.88;;;29.70;77.10;;;;;;5087080;28;20025;-52
2021/11/18 00:45:30;;;;;;;24.10;8.65;;;29.70;77.10;;;;;;5086023;28;20028;-49
2021/11/18 00:47:57;;;;;;;23.60;7.63;;;29.70;77.00;;;;;;5086803;28;20197;-51
2021/11/18 00:50:28;;;;;;;17.25;8.23;;;29.70;77.10;;;;;;5086836;28;20023;-52
2021/11/18 00:52:55;;;;;;;21.48;8.05;;;29.70;77.10;;;;;;5086864;28;20016;-47
2021/11/18 00:55:25;;;;;;;25.58;7.97;;;29.70;77.10;;;;;;5086441;28;20221;-45
2021/11/18 00:57:52;;;;;;;18.77;7.25;;;29.60;77.00;;;;;;5086715;28;20034;-49
2021/11/18 01:00:27;;;;;;;15.85;7.28;;;29.60;77.00;;;;;;5086831;28;20362;-45
2021/11/18 01:02:55;;;;;;;19.05;8.00;;;29.60;77.00;;;;;;5085375;28;20017;-53
2021/11/18 01:05:28;;;;;;;15.40;7.13;;;29.60;77.10;;;;;;5086662;28;20040;-48
2021/11/18 01:07:57;;;;;;;25.65;8.25;;;29.60;76.90;;;;;;5086337;28;20313;-52
2021/11/18 01:10:26;;;;;;;18.05;7.00;;;29.60;76.90;;;;;;5086552;28;20016;-49
2021/11/18 01:12:52;;;;;;;20.42;6.93;;;29.60;77.00;;;;;;5086437;28;20012;-47
2021/11/18 01:15:23;;;;;;;17.08;7.32;;;29.60;76.90;;;;;;5086222;28;20313;-53
2021/11/18 01:17:50;;;;;;;21.52;7.47;;;29.50;76.70;;;;;;5086471;28;20079;-50
2021/11/18 01:20:18;;;;;;;24.00;7.85;;;29.50;76.80;;;;;;5086353;28;20036;-49
2021/11/18 01:22:45;;;;;;;23.80;7.30;;;29.50;76.80;;;;;;5086072;28;20017;-53
2021/11/18 01:25:14;;;;;;;13.48;7.18;;;29.50;76.80;;;;;;5086623;28;20016;-48
2021/11/18 01:27:42;;;;;;;16.65;6.47;;;29.40;76.60;;;;;;5086206;28;20059;-52
2021/11/18 01:30:12;;;;;;;12.73;6.25;;;29.40;76.40;;;;;;5086091;28;20095;-48
2021/11/18 01:32:39;;;;;;;14.88;6.80;;;29.50;76.60;;;;;;5086209;28;20311;-48
2021/11/18 01:35:06;;;;;;;11.70;6.55;;;29.40;76.40;;;;;;5086519;28;20216;-50
2021/11/18 01:37:33;;;;;;;16.17;6.78;;;29.40;76.30;;;;;;5086037;28;20013;-53
2021/11/18 01:40:00;;;;;;;15.85;7.07;;;29.40;76.30;;;;;;5086446;28;20057;-51
2021/11/18 01:42:26;;;;;;;22.80;6.35;;;29.40;76.20;;;;;;5085993;28;20020;-48
2021/11/18 01:44:54;;;;;;;11.70;6.25;;;29.40;76.10;;;;;;5084859;28;20040;-52
2021/11/18 01:47:21;;;;;;;13.82;6.53;;;29.40;76.00;;;;;;5085811;28;20016;-54
2021/11/18 01:49:49;;;;;;;21.90;6.80;;;29.30;75.90;;;;;;5086164;28;20051;-51
2021/11/18 01:52:23;;;;;;;31.77;8.07;;;29.40;75.80;;;;;;5085604;28;20256;-53
2021/11/18 01:54:51;;;;;;;50.83;9.40;;;29.40;75.60;;;;;;5086204;28;20024;-47
2021/11/18 01:57:24;;;;;;;33.78;9.32;;;29.40;75.60;;;;;;5085609;28;20016;-52
2021/11/18 01:59:52;;;;;;;41.90;9.18;;;29.30;75.20;;;;;;5085373;28;20029;-52
2021/11/18 02:02:21;;;;;;;35.53;8.55;;;29.30;75.10;;;;;;5085382;28;20020;-51
2021/11/18 02:05:08;;;;;;;35.25;8.80;;;29.30;74.80;;;;;;5085215;28;20087;-51
2021/11/18 02:07:41;;;;;;;24.13;7.32;;;29.30;74.50;;;;;;5084312;28;20036;-50
2021/11/18 02:10:08;;;;;;;21.15;7.28;;;29.30;73.90;;;;;;5085639;28;20032;-50
2021/11/18 02:12:35;;;;;;;21.00;6.85;;;29.30;73.40;;;;;;5085321;28;20081;-52
2021/11/18 02:15:03;;;;;;;18.30;6.70;;;29.20;73.20;;;;;;5085571;28;20051;-50
2021/11/18 02:17:30;;;;;;;24.70;7.13;;;29.20;72.90;;;;;;5084963;28;20028;-51
2021/11/18 02:19:59;;;;;;;18.88;6.07;;;29.20;72.50;;;;;;5085596;28;20021;-56
2021/11/18 02:22:26;;;;;;;12.05;5.88;;;29.20;72.20;;;;;;5085180;28;20087;-56
2021/11/18 02:24:59;;;;;;;12.07;5.55;;;29.20;71.90;;;;;;5085462;28;20028;-56
2021/11/18 02:27:29;;;;;;;16.00;5.60;;;29.20;71.70;;;;;;5085011;28;20328;-56
2021/11/18 02:29:58;;;;;;;19.23;5.57;;;29.20;71.30;;;;;;5083875;28;20036;-58
2021/11/18 02:32:37;;;;;;;17.67;5.07;;;29.20;71.30;;;;;;5085140;28;20024;-54
2021/11/18 02:35:12;;;;;;;11.27;5.00;;;29.20;70.80;;;;;;5085358;28;20021;-56
2021/11/18 02:37:39;;;;;;;9.63;4.68;;;29.20;70.40;;;;;;5085046;28;20035;-53
2021/11/18 02:40:09;;;;;;;8.77;4.60;;;29.20;70.30;;;;;;5085321;28;20040;-57
2021/11/18 02:42:36;;;;;;;9.93;4.85;;;29.10;69.80;;;;;;5084705;28;20020;-55
2021/11/18 02:45:07;;;;;;;6.78;4.60;;;29.10;69.70;;;;;;5084658;28;20020;-53
2021/11/18 02:47:33;;;;;;;8.45;3.88;;;29.10;69.50;;;;;;5084699;28;20092;-56
2021/11/18 02:50:00;;;;;;;8.80;4.20;;;29.10;69.10;;;;;;5084971;28;20091;-55
2021/11/18 02:52:30;;;;;;;8.35;4.30;;;29.10;68.80;;;;;;5084695;28;20078;-53
2021/11/18 02:55:03;;;;;;;7.38;3.72;;;29.10;68.50;;;;;;5084973;28;20017;-56
2021/11/18 02:57:30;;;;;;;6.80;3.80;;;29.10;68.50;;;;;;5084746;28;20338;-56
2021/11/18 02:59:57;;;;;;;5.28;3.75;;;29.10;68.10;;;;;;5084919;28;20031;-55
2021/11/18 03:02:24;;;;;;;9.52;3.83;;;29.10;68.10;;;;;;5084421;28;20047;-48
2021/11/18 03:04:52;;;;;;;10.48;3.85;;;29.10;68.00;;;;;;5083825;28;20036;-48
2021/11/18 03:07:19;;;;;;;9.02;3.42;;;29.10;67.50;;;;;;5084335;28;20053;-48
2021/11/18 03:09:45;;;;;;;11.57;3.50;;;29.10;67.50;;;;;;5083365;28;20251;-46
2021/11/18 03:12:12;;;;;;;8.43;3.15;;;29.00;67.20;;;;;;5083073;28;20032;-50
2021/11/18 03:14:39;;;;;;;6.55;3.10;;;29.00;67.10;;;;;;5084681;28;20362;-48
2021/11/18 03:17:06;;;;;;;5.72;3.25;;;29.00;67.00;;;;;;5084173;28;20241;-52
2021/11/18 03:19:33;;;;;;;7.60;3.28;;;29.00;66.90;;;;;;5084402;28;20024;-53
2021/11/18 03:22:00;;;;;;;6.20;3.10;;;29.00;66.80;;;;;;5084151;28;20023;-55
2021/11/18 03:24:27;;;;;;;7.90;3.40;;;29.00;66.80;;;;;;5084388;28;20028;-51
2021/11/18 03:26:53;;;;;;;4.68;3.10;;;29.00;66.50;;;;;;5083944;28;20016;-53
2021/11/18 03:29:20;;;;;;;5.57;3.10;;;29.00;66.40;;;;;;5084035;28;20028;-52
2021/11/18 03:31:46;;;;;;;4.80;3.15;;;29.00;66.40;;;;;;5084012;28;20091;-54
2021/11/18 03:34:16;;;;;;;5.50;3.10;;;29.00;66.40;;;;;;5084069;28;20039;-53
2021/11/18 03:36:42;;;;;;;7.60;2.65;;;28.90;66.10;;;;;;5084040;28;20024;-54
2021/11/18 03:39:11;;;;;;;7.05;3.10;;;28.90;65.90;;;;;;5084204;28;20021;-55
2021/11/18 03:41:40;;;;;;;5.53;3.05;;;28.90;65.80;;;;;;5083800;28;20316;-58
2021/11/18 03:44:09;;;;;;;12.20;3.90;;;28.90;65.80;;;;;;5084162;28;20078;-56
2021/11/18 03:46:39;;;;;;;9.38;3.25;;;28.90;65.50;;;;;;5083935;28;20020;-56
2021/11/18 03:49:08;;;;;;;6.78;2.72;;;28.90;65.60;;;;;;5084048;28;20285;-56
2021/11/18 03:51:35;;;;;;;5.72;2.72;;;28.90;65.20;;;;;;5083805;28;20070;-59
2021/11/18 03:54:03;;;;;;;6.05;2.85;;;28.80;64.90;;;;;;5083826;28;20181;-56
2021/11/18 03:56:38;;;;;;;5.53;2.72;;;28.80;65.00;;;;;;5084002;28;20029;-55
2021/11/18 03:59:09;;;;;;;8.93;3.25;;;28.80;65.00;;;;;;5084040;28;20024;-57
2021/11/18 04:01:37;;;;;;;10.40;3.20;;;28.90;64.90;;;;;;5083607;28;20204;-54
2021/11/18 04:04:07;;;;;;;6.63;2.75;;;28.80;64.90;;;;;;5083656;28;20033;-57
2021/11/18 04:06:34;;;;;;;8.48;3.28;;;28.80;65.20;;;;;;5083755;28;20048;-57
2021/11/18 04:09:00;;;;;;;5.60;3.20;;;28.80;65.20;;;;;;5083624;28;20078;-58
2021/11/18 04:11:27;;;;;;;4.82;2.97;;;28.80;65.20;;;;;;5083705;28;20030;-53
2021/11/18 04:13:55;;;;;;;6.35;3.03;;;28.80;65.30;;;;;;5083419;28;20033;-58
2021/11/18 04:16:22;;;;;;;12.75;3.30;;;28.80;65.60;;;;;;5086000;28;20017;-57
2021/11/18 04:18:49;;;;;;;6.00;3.03;;;28.70;65.50;;;;;;5087774;28;20231;-56
2021/11/18 04:21:15;;;;;;;8.15;3.25;;;28.80;66.00;;;;;;5087589;28;20050;-52
2021/11/18 04:23:42;;;;;;;8.93;2.97;;;28.70;66.10;;;;;;5087513;28;20087;-54
2021/11/18 04:26:09;;;;;;;5.50;3.05;;;28.70;66.50;;;;;;5087492;28;20023;-57
2021/11/18 04:28:36;;;;;;;11.13;3.38;;;28.70;66.80;;;;;;5087582;28;20309;-54
2021/11/18 04:31:10;;;;;;;10.13;3.47;;;28.70;67.00;;;;;;5087231;28;20020;-52
2021/11/18 04:33:37;;;;;;;10.63;4.55;;;28.70;67.10;;;;;;5087529;28;20029;-53
2021/11/18 04:36:07;;;;;;;11.93;4.10;;;28.70;67.50;;;;;;5087319;28;20301;-52
2021/11/18 04:38:34;;;;;;;12.52;4.20;;;28.70;67.80;;;;;;5086163;28;20054;-57
2021/11/18 04:41:01;;;;;;;9.20;3.80;;;28.60;67.90;;;;;;5087174;28;20017;-57
2021/11/18 04:43:29;;;;;;;9.40;3.92;;;28.70;68.20;;;;;;5087203;28;20052;-57
2021/11/18 04:45:55;;;;;;;10.30;4.35;;;28.60;68.10;;;;;;5085888;28;20331;-58
2021/11/18 04:48:22;;;;;;;11.95;3.88;;;28.60;68.40;;;;;;5087209;28;20100;-56
2021/11/18 04:50:50;;;;;;;8.43;3.67;;;28.60;68.70;;;;;;5087036;28;20028;-55
2021/11/18 04:53:17;;;;;;;6.80;3.72;;;28.60;68.90;;;;;;5086771;28;20025;-56
2021/11/18 04:55:45;;;;;;;12.48;3.92;;;28.60;69.70;;;;;;5086851;28;20019;-55
2021/11/18 04:58:58;;;;;;;8.88;3.78;;;28.50;69.30;;;;;;5086915;28;20043;-54
2021/11/18 05:01:26;;;;;;;10.00;3.58;;;28.60;69.50;;;;;;5086848;28;20019;-57
2021/11/18 05:03:54;;;;;;;11.75;3.65;;;28.60;69.70;;;;;;5086758;28;20041;-53
2021/11/18 05:06:21;;;;;;;12.00;4.10;;;28.50;69.80;;;;;;5086718;28;20321;-57
2021/11/18 05:08:48;;;;;;;9.15;3.67;;;28.50;70.00;;;;;;5086766;28;20036;-58
2021/11/18 05:11:15;;;;;;;10.57;3.72;;;28.50;70.10;;;;;;5086659;28;20035;-56
2021/11/18 05:13:42;;;;;;;11.50;4.03;;;28.50;70.20;;;;;;5086682;28;20074;-57
2021/11/18 05:16:12;;;;;;;9.57;3.55;;;28.50;70.00;;;;;;5086473;28;20020;-57
2021/11/18 05:18:39;;;;;;;13.23;4.05;;;28.50;69.60;;;;;;5086683;28;20035;-57
2021/11/18 05:21:06;;;;;;;9.13;3.50;;;28.50;69.20;;;;;;5086457;28;20013;-55
2021/11/18 05:23:33;;;;;;;17.58;3.22;;;28.40;68.90;;;;;;5086461;28;20095;-54
2021/11/18 05:26:00;;;;;;;6.97;3.10;;;28.40;68.70;;;;;;5085931;28;20020;-57
2021/11/18 05:28:27;;;;;;;8.18;2.90;;;28.40;68.80;;;;;;5086549;28;20295;-54
2021/11/18 05:30:54;;;;;;;6.38;3.15;;;28.40;69.10;;;;;;5086257;28;20070;-58
2021/11/18 05:33:24;;;;;;;7.25;3.20;;;28.40;68.90;;;;;;5086217;28;20077;-53
2021/11/18 05:35:51;;;;;;;11.15;3.22;;;28.40;68.90;;;;;;5086228;28;20019;-55
2021/11/18 05:38:17;;;;;;;4.45;2.75;;;28.30;68.80;;;;;;5086067;28;20024;-44
2021/11/18 05:40:45;;;;;;;19.10;3.78;;;28.30;68.80;;;;;;5086115;28;20013;-45
2021/11/18 05:43:12;;;;;;;8.15;3.30;;;28.30;68.90;;;;;;5086057;28;20351;-47
2021/11/18 05:45:39;;;;;;;9.82;3.00;;;28.30;69.00;;;;;;5085913;28;20348;-48
2021/11/18 05:48:08;;;;;;;5.40;3.17;;;28.30;68.80;;;;;;5085935;28;20070;-53
2021/11/18 05:50:36;;;;;;;4.75;3.08;;;28.30;68.60;;;;;;5086241;28;20235;-45
2021/11/18 05:53:03;;;;;;;8.32;2.97;;;28.30;68.70;;;;;;5085738;28;20012;-48
2021/11/18 05:55:32;;;;;;;4.85;2.90;;;28.30;68.60;;;;;;5085652;28;20028;-51
2021/11/18 05:57:59;;;;;;;8.13;2.75;;;28.30;68.60;;;;;;5085674;28;20020;-42
2021/11/18 06:00:29;;;;;;;7.07;3.15;;;28.30;68.70;;;;;;5085593;28;20023;-46
2021/11/18 06:02:56;;;;;;;5.07;3.00;;;28.20;68.60;;;;;;5085614;28;20017;-42
2021/11/18 06:05:25;;;;;;;9.05;3.30;;;28.20;68.50;;;;;;5085484;28;20044;-47
2021/11/18 06:07:53;;;;;;;4.22;2.67;;;28.20;68.70;;;;;;5085360;28;20032;-45
2021/11/18 06:10:22;;;;;;;4.75;2.70;;;28.20;68.70;;;;;;5085523;28;20024;-50
2021/11/18 06:12:49;;;;;;;4.57;3.05;;;28.20;68.50;;;;;;5085774;28;20027;-47
2021/11/18 06:15:16;;;;;;;4.13;2.78;;;28.10;68.40;;;;;;5085755;28;20221;-43
2021/11/18 06:17:42;;;;;;;5.13;2.80;;;28.20;68.40;;;;;;5085393;28;20017;-47
2021/11/18 06:20:12;;;;;;;5.97;2.83;;;28.10;68.20;;;;;;5085825;28;20252;-46
2021/11/18 06:22:39;;;;;;;5.50;3.00;;;28.20;68.20;;;;;;5085136;28;20021;-44
2021/11/18 06:25:07;;;;;;;5.90;2.67;;;28.10;68.20;;;;;;5085689;28;20035;-51
2021/11/18 06:27:37;;;;;;;4.68;3.00;;;28.10;68.10;;;;;;5085292;28;20024;-43
2021/11/18 06:30:07;;;;;;;3.20;2.63;;;28.10;68.00;;;;;;5085441;28;20093;-46
2021/11/18 06:32:34;;;;;;;7.18;2.85;;;28.10;67.80;;;;;;5085175;28;20373;-44
2021/11/18 06:35:00;;;;;;;3.88;2.78;;;28.10;67.90;;;;;;5085402;28;20025;-49
2021/11/18 06:37:27;;;;;;;3.80;2.72;;;28.00;67.70;;;;;;5083390;28;20209;-46
2021/11/18 06:39:53;;;;;;;4.20;3.25;;;28.10;67.90;;;;;;5085003;28;20024;-43
2021/11/18 06:42:20;;;;;;;5.30;3.20;;;28.10;67.90;;;;;;5084875;28;20313;-46
2021/11/18 06:44:47;;;;;;;5.03;3.08;;;28.10;67.90;;;;;;5084665;28;20100;-43
2021/11/18 06:47:14;;;;;;;11.25;3.08;;;28.00;67.90;;;;;;5084781;28;20025;-43
2021/11/18 06:49:40;;;;;;;5.35;3.10;;;28.00;68.10;;;;;;5085119;28;20028;-48
2021/11/18 06:52:08;;;;;;;4.72;2.85;;;28.00;68.10;;;;;;5084583;28;20024;-45
2021/11/18 06:54:36;;;;;;;7.45;3.15;;;28.00;68.30;;;;;;5084862;28;20051;-47
2021/11/18 06:57:04;;;;;;;6.32;3.55;;;28.00;68.50;;;;;;5084558;28;20047;-44
2021/11/18 06:59:31;;;;;;;4.55;3.20;;;28.00;68.60;;;;;;5084788;28;20092;-44
2021/11/18 07:01:57;;;;;;;4.05;2.88;;;28.00;68.70;;;;;;5084575;28;20058;-47
2021/11/18 07:04:25;;;;;;;5.78;3.00;;;27.90;68.60;;;;;;5084562;28;20040;-43
2021/11/18 07:06:51;;;;;;;4.40;2.92;;;27.90;68.70;;;;;;5084342;28;20029;-45
2021/11/18 07:09:19;;;;;;;3.97;2.60;;;28.00;68.90;;;;;;5084675;28;20024;-50
2021/11/18 07:11:45;;;;;;;6.25;3.28;;;27.90;68.70;;;;;;5084447;28;20028;-44
2021/11/18 07:14:12;;;;;;;5.90;2.78;;;27.90;68.60;;;;;;5084327;28;20059;-45
2021/11/18 07:16:40;;;;;;;5.10;3.20;;;27.90;68.60;;;;;;5084293;28;20040;-46
2021/11/18 07:19:07;;;;;;;4.45;2.97;;;27.90;68.60;;;;;;5084490;28;20024;-47
2021/11/18 07:21:36;;;;;;;5.85;3.00;;;27.90;68.70;;;;;;5084054;28;20013;-46
2021/11/18 07:24:04;;;;;;;5.35;2.90;;;27.90;68.70;;;;;;5084409;28;20085;-46
2021/11/18 07:26:32;;;;;;;6.28;2.83;;;27.90;69.00;;;;;;5084251;28;20024;-44
2021/11/18 07:28:59;;;;;;;4.28;2.80;;;27.80;69.00;;;;;;5084177;28;20335;-48
2021/11/18 07:31:26;;;;;;;3.65;2.75;;;27.80;68.80;;;;;;5084097;28;20077;-45
2021/11/18 07:33:53;;;;;;;4.15;2.72;;;27.80;68.70;;;;;;5084168;28;20043;-46
2021/11/18 07:36:20;;;;;;;6.05;2.95;;;27.80;68.80;;;;;;5083891;28;20044;-40
2021/11/18 07:38:47;;;;;;;4.80;2.75;;;27.90;69.00;;;;;;5084170;28;20208;-44
2021/11/18 07:41:14;;;;;;;4.43;2.80;;;27.80;69.20;;;;;;5083972;28;20013;-44
2021/11/18 07:43:44;;;;;;;4.05;2.90;;;27.80;69.20;;;;;;5083874;28;20362;-46
2021/11/18 07:46:13;;;;;;;9.55;3.10;;;27.80;69.30;;;;;;5083897;28;20047;-42
2021/11/18 07:48:42;;;;;;;7.18;3.03;;;27.80;69.40;;;;;;5083975;28;20025;-48
2021/11/18 07:51:09;;;;;;;8.70;3.35;;;27.80;69.40;;;;;;5083604;28;20368;-45
2021/11/18 07:53:37;;;;;;;6.15;3.25;;;27.80;69.40;;;;;;5083854;28;20032;-48
2021/11/18 07:56:04;;;;;;;5.57;3.22;;;27.80;69.40;;;;;;5083750;28;20016;-54
2021/11/18 07:58:31;;;;;;;7.88;3.35;;;27.80;69.40;;;;;;5083779;28;20025;-48
2021/11/18 08:00:58;;;;;;;4.53;3.10;;;27.80;69.50;;;;;;5083762;28;20204;-49
2021/11/18 08:03:28;;;;;;;11.80;3.25;;;27.80;69.50;;;;;;5083836;28;20020;-47
2021/11/18 08:05:55;;;;;;;10.65;3.53;;;27.70;69.50;;;;;;5083562;28;20051;-53
2021/11/18 08:08:21;;;;;;;11.75;3.45;;;27.80;69.60;;;;;;5083768;28;20078;-49
2021/11/18 08:10:48;;;;;;;19.33;3.78;;;27.80;69.70;;;;;;5083682;28;20032;-51
2021/11/18 08:13:15;;;;;;;17.13;3.83;;;27.70;69.80;;;;;;5083499;28;20021;-51
2021/11/18 08:15:42;;;;;;;11.00;3.30;;;27.70;70.10;;;;;;5083624;28;20327;-48
2021/11/18 08:18:08;;;;;;;8.07;3.08;;;27.70;70.30;;;;;;5083560;28;20012;-49
2021/11/18 08:20:35;;;;;;;13.00;3.20;;;27.70;70.50;;;;;;5083491;28;20205;-47
2021/11/18 08:23:02;;;;;;;7.28;3.15;;;27.70;70.70;;;;;;5083527;28;20016;-47
2021/11/18 08:25:31;;;;;;;8.30;3.40;;;27.70;70.90;;;;;;5083516;28;20048;-48
2021/11/18 08:27:58;;;;;;;6.53;3.30;;;27.70;71.10;;;;;;5083330;28;20272;-51
2021/11/18 08:30:28;;;;;;;6.18;3.50;;;27.70;71.20;;;;;;5083521;28;20145;-49
2021/11/18 08:32:58;;;;;;;6.38;2.95;;;27.70;71.20;;;;;;5083454;28;20016;-46
2021/11/18 08:35:31;;;;;;;8.73;3.20;;;27.70;71.20;;;;;;5083624;28;20092;-47
2021/11/18 08:38:03;;;;;;;7.95;3.13;;;27.60;71.50;;;;;;5083433;28;20057;-47
2021/11/18 08:40:31;;;;;;;5.85;2.83;;;27.60;71.70;;;;;;5083246;28;20021;-46
2021/11/18 08:42:57;;;;;;;6.60;2.88;;;27.60;71.90;;;;;;5083297;28;20301;-48
2021/11/18 08:45:24;;;;;;;5.50;3.10;;;27.60;72.60;;;;;;5083356;28;20024;-53
2021/11/18 08:47:51;;;;;;;7.05;3.45;;;27.60;72.10;;;;;;5083132;28;20021;-51
2021/11/18 08:50:21;;;;;;;9.02;3.22;;;27.60;72.20;;;;;;5083303;28;20044;-48
2021/11/18 08:52:48;;;;;;;4.13;2.97;;;27.50;72.30;;;;;;5083316;28;20058;-50
2021/11/18 08:55:23;;;;;;;8.35;3.17;;;27.50;72.40;;;;;;5083450;28;20020;-46
2021/11/18 08:57:51;;;;;;;6.13;3.40;;;27.50;72.50;;;;;;5083288;28;20025;-49
2021/11/18 09:00:41;;;;;;;6.80;3.55;;;27.50;72.60;;;;;;5083198;28;20028;-47
2021/11/18 09:03:08;;;;;;;7.75;3.92;;;27.50;72.70;;;;;;5086662;28;20328;-48
2021/11/18 09:05:35;;;;;;;8.23;5.53;;;27.50;72.70;;;;;;5086591;28;20040;-50
2021/11/18 09:08:03;;;;;;;9.48;5.68;;;27.50;72.90;;;;;;5086716;28;20355;-45
2021/11/18 09:10:30;;;;;;;11.45;5.88;;;27.50;72.90;;;;;;5086796;28;20030;-46
2021/11/18 09:12:57;;;;;;;9.77;5.43;;;27.50;72.90;;;;;;5086509;28;20016;-44
2021/11/18 09:15:27;;;;;;;10.32;5.43;;;27.50;73.10;;;;;;5086590;28;20345;-46
2021/11/18 09:17:56;;;;;;;8.80;5.25;;;27.40;73.10;;;;;;5086583;28;20209;-46
2021/11/18 09:20:25;;;;;;;13.05;6.00;;;27.40;73.20;;;;;;5086398;28;20331;-50
2021/11/18 09:22:57;;;;;;;9.93;5.45;;;27.40;73.20;;;;;;5086362;28;20213;-47
2021/11/18 09:25:30;;;;;;;10.18;5.50;;;27.40;73.30;;;;;;5086459;28;20023;-48
2021/11/18 09:27:57;;;;;;;11.43;5.90;;;27.40;73.40;;;;;;5086176;28;20355;-52
2021/11/18 09:30:38;;;;;;;9.63;5.70;;;27.40;73.40;;;;;;5086336;28;20305;-49
2021/11/18 09:33:06;;;;;;;9.52;5.80;;;27.40;73.50;;;;;;5086140;28;20059;-49
2021/11/18 09:35:39;;;;;;;15.57;6.93;;;27.30;73.40;;;;;;5086149;28;20024;-41
2021/11/18 09:38:08;;;;;;;12.70;7.70;;;27.30;74.00;;;;;;5086470;28;20023;-47
2021/11/18 09:41:14;;;;;;;13.75;7.63;;;27.40;73.60;;;;;;5086043;28;20039;-45
2021/11/18 09:43:59;;;;;;;11.77;6.72;;;27.30;73.60;;;;;;5086067;28;20213;-49
2021/11/18 09:46:48;;;;;;;21.65;7.25;;;27.30;73.50;;;;;;5086071;28;20317;-50
2021/11/18 09:49:43;;;;;;;13.30;6.22;;;27.30;73.60;;;;;;5086255;28;20035;-50
2021/11/18 09:52:31;;;;;;;18.60;10.80;;;27.30;73.70;;;;;;5085809;28;20057;-49
2021/11/18 09:55:08;;;;;;;25.05;13.38;;;27.30;73.70;;;;;;5086220;28;20246;-49
2021/11/18 09:57:43;;;;;;;22.27;10.93;;;27.30;73.80;;;;;;5086035;28;20309;-50
2021/11/18 10:00:36;;;;;;;20.85;9.77;;;27.20;73.60;;;;;;5085748;28;20024;-54
2021/11/18 10:03:18;;;;;;;17.58;8.85;;;27.20;73.60;;;;;;5085650;28;20058;-52
2021/11/18 10:05:56;;;;;;;;;;;27.20;73.60;;;;;;5085820;28;20052;-52
2021/11/18 10:08:31;;;;;;;18.33;7.95;;;27.20;73.60;;;;;;5085744;28;19939;-52
2021/11/18 10:11:04;;;;;;;15.50;6.88;;;27.20;73.70;;;;;;5085385;28;20023;-57
2021/11/18 10:13:54;;;;;;;12.68;6.63;;;27.20;73.50;;;;;;5085681;28;20029;-58
2021/11/18 10:16:27;;;;;;;19.10;7.65;;;27.10;73.40;;;;;;5085311;28;20009;-58
2021/11/18 10:19:02;;;;;;;14.02;6.60;;;27.10;73.30;;;;;;5085613;28;20032;-55
2021/11/18 10:21:39;;;;;;;10.15;6.25;;;27.10;73.30;;;;;;5085203;28;20021;-58
2021/11/18 10:24:18;;;;;;;14.25;5.28;;;27.10;73.40;;;;;;5085497;28;20066;-54
2021/11/18 10:26:50;;;;;;;18.88;5.70;;;27.10;73.10;;;;;;5085119;28;20080;-58
2021/11/18 10:29:26;;;;;;;35.65;7.15;;;27.10;73.10;;;;;;5085419;28;20036;-58
2021/11/18 10:31:58;;;;;;;29.90;6.93;;;27.10;73.10;;;;;;5085109;28;20028;-57
2021/11/18 10:34:54;;;;;;;35.28;6.18;;;27.10;73.10;;;;;;5085385;28;20028;-54
2021/11/18 10:37:30;;;;;;;23.88;6.05;;;27.10;73.10;;;;;;5084360;28;20336;-58
2021/11/18 10:39:56;;;;;;;20.52;5.60;;;27.10;73.00;;;;;;5085426;28;20032;-59
2021/11/18 10:42:47;;;;;;;21.17;5.35;;;27.00;72.90;;;;;;5084965;28;20020;-54
2021/11/18 10:45:34;;;;;;;17.73;5.22;;;27.00;72.90;;;;;;5085321;28;20096;-54
2021/11/18 10:48:30;;;;;;;17.38;5.28;;;27.00;73.00;;;;;;5084660;28;20016;-49
2021/11/18 10:51:03;;;;;;;14.23;5.32;;;27.00;72.80;;;;;;5084651;28;20027;-52
2021/11/18 10:53:50;;;;;;;22.13;5.35;;;27.00;72.70;;;;;;5084857;28;20200;-53
2021/11/18 10:56:22;;;;;;;17.23;5.20;;;27.00;72.60;;;;;;5084403;28;20055;-47
2021/11/18 10:59:14;;;;;;;11.55;4.35;;;27.00;72.60;;;;;;5084595;28;20028;-47
2021/11/18 11:01:43;;;;;;;16.50;4.35;;;27.10;72.40;;;;;;5084520;28;20047;-48
2021/11/18 11:04:31;;;;;;;16.73;4.97;;;27.00;72.10;;;;;;5084362;28;20047;-48
2021/11/18 11:06:57;;;;;;;16.23;4.35;;;27.00;72.20;;;;;;5084334;28;20074;-51
2021/11/18 11:09:35;;;;;;;13.57;4.13;;;27.00;72.30;;;;;;5084603;28;20095;-50
2021/11/18 11:12:13;;;;;;;17.05;4.28;;;27.00;72.10;;;;;;5084213;28;20024;-53
2021/11/18 11:14:53;;;;;;;21.10;3.83;;;27.00;72.20;;;;;;5084733;28;20024;-51
2021/11/18 11:17:29;;;;;;;10.55;3.70;;;27.00;72.10;;;;;;5084101;28;20017;-54
2021/11/18 11:19:59;;;;;;;14.82;4.07;;;27.00;72.10;;;;;;5084635;28;20025;-45
2021/11/18 11:22:40;;;;;;;13.80;4.68;;;27.00;72.20;;;;;;5084134;28;20019;-52
2021/11/18 11:25:36;;;;;;;13.63;4.20;;;27.00;72.10;;;;;;5084236;28;20208;-48
2021/11/18 11:28:26;;;;;;;15.73;4.63;;;27.00;72.00;;;;;;5084124;28;20083;-50
2021/11/18 11:31:17;;;;;;;15.98;4.55;;;27.00;72.00;;;;;;5083883;28;20231;-53
2021/11/18 11:34:18;;;;;;;12.52;4.15;;;27.00;72.20;;;;;;5084114;28;20024;-51
2021/11/18 11:36:58;;;;;;;12.38;4.22;;;27.00;72.30;;;;;;5083919;28;20024;-52
2021/11/18 11:39:52;;;;;;;10.35;3.97;;;27.10;72.40;;;;;;5083992;28;20025;-51
2021/11/18 11:42:46;;;;;;;14.10;3.85;;;27.10;72.50;;;;;;5083847;28;20027;-47
2021/11/18 11:45:54;;;;;;;14.57;4.00;;;27.10;72.60;;;;;;5083789;28;20025;-47
2021/11/18 11:48:42;;;;;;;7.55;3.58;;;27.20;72.90;;;;;;5076534;28;20059;-50
2021/11/18 11:51:21;;;;;;;9.68;3.97;;;27.20;73.10;;;;;;5083705;28;20401;-48
2021/11/18 11:54:26;;;;;;;8.60;3.88;;;27.30;73.20;;;;;;5083829;28;20091;-51
2021/11/18 11:57:02;;;;;;;11.10;3.95;;;27.40;73.50;;;;;;5083671;28;20013;-50
2021/11/18 11:59:45;;;;;;;15.18;3.53;;;27.40;73.70;;;;;;5083850;28;20062;-49
2021/11/18 12:02:21;;;;;;;11.48;3.80;;;27.40;73.50;;;;;;5083624;28;20023;-52
2021/11/18 12:04:56;;;;;;;10.82;4.22;;;27.40;73.60;;;;;;5083541;28;20040;-50
2021/11/18 12:07:32;;;;;;;11.02;4.72;;;27.50;73.90;;;;;;5083554;28;20208;-48
2021/11/18 12:10:20;;;;;;;14.60;4.18;;;27.50;74.10;;;;;;5083969;28;20035;-53
2021/11/18 12:12:49;;;;;;;10.57;4.47;;;27.50;74.00;;;;;;5083628;28;20070;-44
2021/11/18 12:15:20;;;;;;;15.80;4.47;;;27.60;73.90;;;;;;5083351;28;20067;-48
2021/11/18 12:17:56;;;;;;;14.98;4.38;;;27.60;74.00;;;;;;5083568;28;20028;-46
2021/11/18 12:20:34;;;;;;;11.00;3.55;;;27.60;73.90;;;;;;5083272;28;20045;-49
2021/11/18 12:23:11;;;;;;;26.42;5.20;;;27.60;74.20;;;;;;5083382;28;20256;-45
2021/11/18 12:26:05;;;;;;;30.58;8.10;;;27.70;74.50;;;;;;5083297;28;20081;-44
2021/11/18 12:28:36;;;;;;;16.65;5.30;;;27.70;74.30;;;;;;5083342;28;20029;-53
2021/11/18 12:31:03;;;;;;;19.80;5.40;;;27.70;74.20;;;;;;5083229;28;20016;-49
2021/11/18 12:33:32;;;;;;;16.95;5.50;;;27.70;74.20;;;;;;5083313;28;20235;-51
2021/11/18 12:36:05;;;;;;;15.20;5.47;;;27.70;74.30;;;;;;5083541;28;20035;-45
2021/11/18 12:38:38;;;;;;;12.13;4.90;;;27.70;74.50;;;;;;5087413;28;20029;-51
2021/11/18 12:41:32;;;;;;;12.90;4.88;;;27.80;74.30;;;;;;5086979;28;20017;-45
2021/11/18 12:44:14;;;;;;;16.58;5.63;;;27.90;74.30;;;;;;5087258;28;20308;-49
2021/11/18 12:47:11;;;;;;;18.33;4.60;;;27.90;74.40;;;;;;5087074;28;20275;-51
2021/11/18 12:49:55;;;;;;;13.50;4.95;;;27.90;74.50;;;;;;5087625;28;20028;-54
2021/11/18 12:52:25;;;;;;;18.30;5.40;;;27.90;74.30;;;;;;5087087;28;20276;-47
2021/11/18 12:55:13;;;;;;;17.83;5.18;;;27.90;74.30;;;;;;5087191;28;20027;-52
2021/11/18 12:57:45;;;;;;;19.73;4.70;;;28.00;74.30;;;;;;5087061;28;20048;-52
2021/11/18 13:00:19;;;;;;;13.02;4.53;;;28.00;74.40;;;;;;5087235;28;20212;-51
2021/11/18 13:02:53;;;;;;;12.73;4.68;;;28.00;74.30;;;;;;5086890;28;20012;-56